Time;durP1;ratioP1;P1;durP2;ratioP2;P2;SDS_P1;SDS_P2;PMS_P1;PMS_P2;Temp;Humidity;BMP_temperature;BMP_pressure;BME280_temperature;BME280_humidity;BME280_pressure;Samples;Min_cycle;Max_cycle;Signal;HPM_P1;HPM_P2
2023/05/10 00:00:33;;;;;;;;;0.50;0.50;;;;;21.20;48.21;100774.00;4998052;28;45320;-38
2023/05/10 00:02:58;;;;;;;;;0.50;0.50;;;;;21.21;48.34;100778.34;4998184;28;45446;-39
2023/05/10 00:05:23;;;;;;;;;1.00;1.00;;;;;21.20;48.38;100777.50;4997720;28;58367;-38
2023/05/10 00:07:49;;;;;;;;;1.25;0.75;;;;;21.20;48.13;100777.50;4997820;28;45463;-38
2023/05/10 00:10:14;;;;;;;;;1.00;0.75;;;;;21.20;48.07;100782.78;4997852;28;45190;-38
2023/05/10 00:12:40;;;;;;;;;1.00;0.00;;;;;21.20;48.29;100787.19;4998111;28;45447;-38
2023/05/10 00:15:06;;;;;;;;;0.00;0.00;;;;;21.20;47.98;100776.66;4997599;28;46780;-39
2023/05/10 00:17:31;;;;;;;;;0.00;0.00;;;;;21.19;47.91;100783.72;4997705;28;45632;-39
2023/05/10 00:19:57;;;;;;;;;1.00;1.00;;;;;21.19;48.21;100786.34;4998101;28;45196;-38
2023/05/10 00:22:22;;;;;;;;;0.25;0.25;;;;;21.19;48.21;100781.09;4996588;28;45224;-38
2023/05/10 00:24:48;;;;;;;;;1.00;1.00;;;;;21.20;48.41;100787.19;4997095;28;47308;-38
2023/05/10 00:27:13;;;;;;;;;1.00;1.00;;;;;21.19;47.88;100775.81;4997484;28;45227;-38
2023/05/10 00:29:38;;;;;;;;;0.00;0.00;;;;;21.18;48.18;100776.75;4997628;28;45344;-38
2023/05/10 00:32:04;;;;;;;;;0.00;0.00;;;;;21.18;48.02;100779.38;4997793;28;45541;-38
2023/05/10 00:34:30;;;;;;;;;1.75;0.25;;;;;21.16;47.82;100779.47;4997508;28;45882;-38
2023/05/10 00:36:56;;;;;;;;;0.00;0.00;;;;;21.18;47.76;100774.13;4997651;28;45340;-38
2023/05/10 00:39:21;;;;;;;;;0.00;0.00;;;;;21.17;47.74;100782.94;4997470;28;45273;-38
2023/05/10 00:41:46;;;;;;;;;1.00;1.00;;;;;21.16;47.92;100792.66;4997503;28;45354;-39
2023/05/10 00:44:12;;;;;;;;;0.75;0.75;;;;;21.15;47.96;100790.97;4997169;28;45280;-38
2023/05/10 00:46:37;;;;;;;;;0.00;0.00;;;;;21.16;47.98;100799.69;4996695;28;58907;-39
2023/05/10 00:49:03;;;;;;;;;0.25;0.25;;;;;21.15;47.66;100796.22;4997355;28;45704;-38
2023/05/10 00:51:28;;;;;;;;;2.00;0.00;;;;;21.15;47.83;100801.50;4997664;28;45672;-39
2023/05/10 00:53:55;;;;;;;;;1.00;1.00;;;;;21.15;47.66;100798.88;4996322;28;45479;-40
2023/05/10 00:56:22;;;;;;;;;0.00;0.00;;;;;21.16;47.27;100802.34;4997071;28;45727;-38
2023/05/10 00:58:48;;;;;;;;;0.00;0.00;;;;;21.15;47.76;100806.78;4997170;28;45381;-39
2023/05/10 01:01:14;;;;;;;;;0.75;0.75;;;;;21.16;47.53;100802.34;4997306;28;45232;-39
2023/05/10 01:03:40;;;;;;;;;0.00;0.00;;;;;21.15;47.60;100803.28;4996766;28;46937;-38
2023/05/10 01:06:06;;;;;;;;;1.00;0.00;;;;;21.15;47.47;100798.00;4996899;28;45412;-38
2023/05/10 01:08:31;;;;;;;;;2.00;1.00;;;;;21.14;47.72;100804.22;4996940;28;45341;-38
2023/05/10 01:10:57;;;;;;;;;0.25;0.00;;;;;21.13;47.31;100813.91;4997482;28;45463;-38
2023/05/10 01:13:35;;;;;;;;;0.00;0.00;;;;;21.15;47.34;100813.81;4996753;28;46395;-38
2023/05/10 01:16:04;;;;;;;;;0.00;0.00;;;;;21.15;47.66;100816.44;4997150;28;45316;-39
2023/05/10 01:18:32;;;;;;;;;0.00;0.00;;;;;21.14;47.19;100804.22;4997232;28;45336;-39
2023/05/10 01:21:11;;;;;;;;;0.50;0.00;;;;;21.14;47.17;100798.94;4997293;28;45340;-39
2023/05/10 01:23:46;;;;;;;;;0.00;0.00;;;;;21.13;47.08;100802.50;4996761;28;46566;-39
2023/05/10 01:26:20;;;;;;;;;2.00;0.00;;;;;21.13;47.34;100802.50;4996722;28;45245;-39
2023/05/10 01:28:57;;;;;;;;;1.50;1.00;;;;;21.13;47.21;100811.28;5011916;28;45244;-38
2023/05/10 01:31:56;;;;;;;;;0.00;0.00;;;;;21.12;47.01;100817.50;4997042;28;45380;-38
2023/05/10 01:34:30;;;;;;;;;0.00;0.00;;;;;21.12;47.35;100816.63;4996520;28;46598;-39
2023/05/10 01:37:05;;;;;;;;;3.75;0.75;;;;;21.11;47.35;100807.03;4996616;28;45882;-39
2023/05/10 01:39:49;;;;;;;;;0.00;0.00;;;;;21.11;47.46;100810.50;4997035;28;45380;-39
2023/05/10 01:42:19;;;;;;;;;0.00;0.00;;;;;21.11;47.26;100804.41;4996914;28;45519;-40
2023/05/10 01:44:53;;;;;;;;;1.25;0.00;;;;;21.11;47.20;100812.31;4996474;28;45613;-40
2023/05/10 01:47:36;;;;;;;;;0.00;0.00;;;;;21.10;46.74;100803.53;4996352;28;45326;-40
2023/05/10 01:50:04;;;;;;;;;2.00;0.00;;;;;21.10;46.75;100813.25;4996910;28;45431;-41
2023/05/10 01:52:38;;;;;;;;;0.00;0.00;;;;;21.09;47.40;100806.28;4995433;28;45245;-41
2023/05/10 01:55:07;;;;;;;;;1.00;1.00;;;;;21.09;47.13;100808.91;4996666;28;45609;-40
2023/05/10 01:57:35;;;;;;;;;0.00;0.00;;;;;21.09;46.89;100811.56;4996751;28;45274;-40
2023/05/10 02:00:03;;;;;;;;;0.00;0.00;;;;;21.09;46.87;100816.81;4996858;28;45469;-42
2023/05/10 02:02:32;;;;;;;;;0.00;0.00;;;;;21.08;47.11;100813.31;4996583;28;45319;-41
2023/05/10 02:04:59;;;;;;;;;0.75;0.00;;;;;21.09;46.89;100817.66;4997817;28;46401;-41
2023/05/10 02:07:26;;;;;;;;;0.00;0.00;;;;;21.08;46.93;100815.97;4999647;28;45415;-43
2023/05/10 02:09:52;;;;;;;;;0.00;0.00;;;;;21.09;46.76;100832.63;4999874;28;45375;-40
2023/05/10 02:12:18;;;;;;;;;0.00;0.00;;;;;21.08;46.88;100825.66;4999954;28;45551;-38
2023/05/10 02:14:45;;;;;;;;;1.50;0.00;;;;;21.08;46.55;100837.03;4999477;28;46363;-38
2023/05/10 02:17:11;;;;;;;;;0.00;0.00;;;;;21.08;46.93;100826.50;5014997;28;45870;-38
2023/05/10 02:19:40;;;;;;;;;0.00;0.00;;;;;21.08;46.67;100812.50;4999501;28;45186;-39
2023/05/10 02:22:08;;;;;;;;;0.00;0.00;;;;;21.06;46.78;100814.34;4999903;28;45395;-38
2023/05/10 02:24:35;;;;;;;;;0.00;0.00;;;;;21.07;46.92;100816.06;4999627;28;46376;-39
2023/05/10 02:27:02;;;;;;;;;0.00;0.00;;;;;21.06;46.70;100811.72;4998369;28;45249;-38
2023/05/10 02:29:28;;;;;;;;;0.00;0.00;;;;;21.07;46.79;100823.97;4999557;28;45265;-38
2023/05/10 02:31:55;;;;;;;;;1.00;0.00;;;;;21.07;46.82;100832.69;4999590;28;45337;-39
2023/05/10 02:34:22;;;;;;;;;1.00;0.00;;;;;21.06;46.50;100824.91;4999151;28;46601;-39
2023/05/10 02:36:48;;;;;;;;;0.00;0.00;;;;;21.04;46.70;100818.88;4999343;28;45641;-38
2023/05/10 02:39:15;;;;;;;;;0.00;0.00;;;;;21.05;46.50;100823.19;4999275;28;45361;-38
2023/05/10 02:41:42;;;;;;;;;0.00;0.00;;;;;21.06;46.48;100822.25;4999593;28;45289;-39
2023/05/10 02:44:09;;;;;;;;;1.00;0.00;;;;;21.04;46.36;100818.88;4999059;28;45403;-39
2023/05/10 02:46:35;;;;;;;;;0.00;0.00;;;;;21.04;46.82;100822.34;4999254;28;45824;-37
2023/05/10 02:49:01;;;;;;;;;0.00;0.00;;;;;21.06;46.35;100822.25;4999263;28;45377;-45
2023/05/10 02:51:31;;;;;;;;;0.00;0.00;;;;;21.05;46.30;100823.19;4999497;28;45625;-37
2023/05/10 02:54:00;;;;;;;;;1.50;0.00;;;;;21.04;46.90;100818.88;4998789;28;46283;-38
2023/05/10 02:56:33;;;;;;;;;0.00;0.00;;;;;21.03;46.46;100809.25;4997623;28;45717;-38
2023/05/10 02:58:58;;;;;;;;;0.00;0.00;;;;;21.03;46.61;100806.63;4999086;28;45286;-38
2023/05/10 03:01:23;;;;;;;;;0.00;0.00;;;;;21.01;46.68;100799.66;4999139;28;45283;-38
2023/05/10 03:03:49;;;;;;;;;0.00;0.00;;;;;21.04;46.17;100808.31;4998762;28;45754;-39
2023/05/10 03:06:14;;;;;;;;;0.00;0.00;;;;;21.03;46.37;100798.72;4998866;28;45226;-38
2023/05/10 03:08:39;;;;;;;;;1.00;0.00;;;;;21.03;46.73;100801.34;4998968;28;45435;-38
2023/05/10 03:11:23;;;;;;;;;0.00;0.00;;;;;21.03;46.31;100809.25;4999307;28;45504;-39
2023/05/10 03:14:22;;;;;;;;;0.00;0.00;;;;;21.03;46.71;100801.34;4998756;28;46427;-38
2023/05/10 03:16:57;;;;;;;;;0.00;0.00;;;;;21.01;46.40;100804.91;4998556;28;45364;-38
2023/05/10 03:19:27;;;;;;;;;0.00;0.00;;;;;21.01;46.35;100807.56;4998762;28;45358;-39
2023/05/10 03:21:55;;;;;;;;;0.00;0.00;;;;;20.99;46.14;100812.09;4998841;28;45278;-38
2023/05/10 03:24:27;;;;;;;;;0.00;0.00;;;;;21.02;46.12;100805.78;4998409;28;46885;-38
2023/05/10 03:26:56;;;;;;;;;0.00;0.00;;;;;21.00;46.21;100799.75;4998497;28;45246;-38
2023/05/10 03:29:23;;;;;;;;;0.00;0.00;;;;;20.99;46.27;100809.47;4998583;28;45321;-37
2023/05/10 03:31:48;;;;;;;;;0.00;0.00;;;;;21.01;46.27;100812.00;4997543;28;45523;-38
2023/05/10 03:34:13;;;;;;;;;1.00;0.00;;;;;21.00;46.57;100808.50;4998338;28;46467;-38
2023/05/10 03:36:39;;;;;;;;;0.00;0.00;;;;;20.99;46.42;100812.09;4997937;28;60921;-38
2023/05/10 03:39:04;;;;;;;;;0.00;0.00;;;;;20.99;46.20;100804.19;4998760;28;45437;-39
2023/05/10 03:41:29;;;;;;;;;0.00;0.00;;;;;21.00;46.14;100810.28;4998147;28;53056;-39
2023/05/10 03:43:55;;;;;;;;;0.00;0.00;;;;;20.98;45.91;100805.13;4996970;28;48072;-39
2023/05/10 03:46:20;;;;;;;;;0.00;0.00;;;;;20.98;46.22;100807.75;4998272;28;45293;-38
2023/05/10 03:48:45;;;;;;;;;0.00;0.00;;;;;20.99;46.28;100812.09;4998290;28;45427;-38
2023/05/10 03:51:11;;;;;;;;;0.00;0.00;;;;;20.97;45.89;100808.69;4997748;28;54835;-39
2023/05/10 03:53:36;;;;;;;;;0.00;0.00;;;;;20.98;46.42;100807.75;4997546;28;67831;-38
2023/05/10 03:56:01;;;;;;;;;0.00;0.00;;;;;20.98;46.20;100805.13;4997726;28;54490;-38
2023/05/10 03:58:27;;;;;;;;;2.00;0.00;;;;;20.98;45.75;100809.53;4998055;28;45162;-40
2023/05/10 04:00:52;;;;;;;;;0.00;0.00;;;;;20.98;46.08;100815.66;4998282;28;45277;-39
2023/05/10 04:03:18;;;;;;;;;0.00;0.00;;;;;20.97;46.61;100808.69;4997901;28;45346;-39
2023/05/10 04:05:43;;;;;;;;;0.00;0.00;;;;;20.97;46.67;100808.69;4996532;28;45415;-38
2023/05/10 04:08:08;;;;;;;;;0.00;0.00;;;;;20.98;46.09;100805.13;4998122;28;45310;-39
2023/05/10 04:10:34;;;;;;;;;0.00;0.00;;;;;20.98;46.02;100804.25;4998127;28;45550;-39
2023/05/10 04:13:00;;;;;;;;;0.00;0.00;;;;;20.96;45.90;100793.81;4997543;28;45454;-39
2023/05/10 04:15:25;;;;;;;;;1.00;0.00;;;;;20.97;46.01;100795.50;4997731;28;45760;-38
2023/05/10 04:17:51;;;;;;;;;0.00;0.00;;;;;20.97;46.47;100792.88;4997883;28;45379;-39
2023/05/10 04:20:16;;;;;;;;;0.00;0.00;;;;;20.97;45.81;100792.00;4997840;28;45425;-39
2023/05/10 04:22:42;;;;;;;;;0.50;0.00;;;;;20.96;45.81;100796.44;4997633;28;45297;-39
2023/05/10 04:25:08;;;;;;;;;0.00;0.00;;;;;20.96;46.17;100801.72;4997933;28;45328;-39
2023/05/10 04:27:33;;;;;;;;;0.00;0.00;;;;;20.96;45.83;100799.09;4996880;28;45273;-40
2023/05/10 04:29:58;;;;;;;;;0.00;0.00;;;;;20.95;45.77;100789.47;4997875;28;45416;-42
2023/05/10 04:32:24;;;;;;;;;0.00;0.00;;;;;20.95;45.96;100794.75;4997494;28;46483;-40
2023/05/10 04:34:50;;;;;;;;;1.00;0.00;;;;;20.94;45.44;100795.69;4997030;28;54389;-42
2023/05/10 04:37:16;;;;;;;;;0.00;0.00;;;;;20.94;45.37;100798.31;4997623;28;45344;-40
2023/05/10 04:39:41;;;;;;;;;0.00;0.00;;;;;20.93;45.85;100793.97;4997253;28;55465;-39
2023/05/10 04:42:07;;;;;;;;;0.00;0.00;;;;;20.94;45.69;100795.69;4995999;28;46978;-39
2023/05/10 04:44:32;;;;;;;;;0.00;0.00;;;;;20.94;45.97;100798.31;4997178;28;45242;-42
2023/05/10 04:46:58;;;;;;;;;0.00;0.00;;;;;20.93;45.86;100791.34;4997304;28;45311;-40
2023/05/10 04:49:24;;;;;;;;;0.00;0.00;;;;;20.95;46.11;100788.63;4997470;28;45320;-40
2023/05/10 04:51:49;;;;;;;;;0.00;0.00;;;;;20.94;46.09;100790.41;4995921;28;45929;-41
2023/05/10 04:54:14;;;;;;;;;0.25;0.25;;;;;20.93;46.28;100788.72;4996569;28;57146;-39
2023/05/10 04:56:40;;;;;;;;;0.00;0.00;;;;;20.94;46.51;100787.78;4997796;28;45435;-39
2023/05/10 04:59:08;;;;;;;;;0.00;0.00;;;;;20.95;46.41;100783.34;4997372;28;45706;-40
2023/05/10 05:01:33;;;;;;;;;0.00;0.00;;;;;20.95;46.67;100778.06;4996925;28;45460;-41
2023/05/10 05:03:59;;;;;;;;;0.00;0.00;;;;;20.96;46.54;100791.19;4995757;28;45443;-41
2023/05/10 05:06:24;;;;;;;;;0.00;0.00;;;;;20.96;46.64;100785.03;4997094;28;45416;-39
2023/05/10 05:08:50;;;;;;;;;0.50;0.00;;;;;20.96;46.95;100785.91;4995951;28;45272;-39
2023/05/10 05:11:16;;;;;;;;;1.25;0.00;;;;;20.95;47.04;100780.72;4996880;28;45488;-40
2023/05/10 05:13:41;;;;;;;;;0.00;0.00;;;;;20.97;47.29;100786.75;5012365;28;45266;-40
2023/05/10 05:16:06;;;;;;;;;1.00;0.50;;;;;20.96;47.36;100791.19;4997006;28;45282;-39
2023/05/10 05:18:32;;;;;;;;;0.50;0.00;;;;;20.94;47.58;100789.59;4996931;28;45723;-38
2023/05/10 05:20:57;;;;;;;;;0.00;0.00;;;;;20.97;47.68;100792.00;4996569;28;46526;-39
2023/05/10 05:23:24;;;;;;;;;0.00;0.00;;;;;20.97;47.69;100787.63;4996605;28;45253;-39
2023/05/10 05:25:52;;;;;;;;;0.00;0.00;;;;;20.96;47.41;100787.69;4996774;28;45261;-41
2023/05/10 05:28:17;;;;;;;;;2.00;0.00;;;;;20.97;47.50;100792.00;4996762;28;45380;-39
2023/05/10 05:30:42;;;;;;;;;0.00;0.00;;;;;20.96;47.83;100791.19;4996771;28;46301;-39
2023/05/10 05:33:08;;;;;;;;;0.00;0.00;;;;;20.97;47.60;100792.88;4996468;28;45394;-39
2023/05/10 05:35:33;;;;;;;;;1.00;1.00;;;;;20.96;47.88;100798.22;4996735;28;45359;-39
2023/05/10 05:37:58;;;;;;;;;1.00;0.00;;;;;20.96;47.83;100795.59;4996477;28;45435;-39
2023/05/10 05:40:24;;;;;;;;;0.00;0.00;;;;;20.96;47.71;100795.59;4996389;28;45499;-40
2023/05/10 05:42:49;;;;;;;;;1.00;0.00;;;;;20.95;47.81;100797.38;4996514;28;45431;-39
2023/05/10 05:45:15;;;;;;;;;0.50;0.00;;;;;20.94;47.65;100798.31;4996907;28;45415;-40
2023/05/10 05:47:41;;;;;;;;;0.00;0.00;;;;;20.95;47.52;100800.03;4995370;28;45313;-43
2023/05/10 05:50:06;;;;;;;;;0.00;0.00;;;;;20.94;47.66;100803.59;4996247;28;45660;-39
2023/05/10 05:52:32;;;;;;;;;2.00;0.00;;;;;20.95;47.49;100805.28;4996304;28;45392;-39
2023/05/10 05:54:58;;;;;;;;;0.00;0.00;;;;;20.94;47.58;100803.59;4996575;28;45274;-40
2023/05/10 05:57:23;;;;;;;;;0.00;0.00;;;;;20.95;47.68;100805.28;4996169;28;49849;-39
2023/05/10 05:59:48;;;;;;;;;0.50;0.00;;;;;20.95;47.68;100809.69;4996225;28;47274;-39
2023/05/10 06:02:14;;;;;;;;;1.00;0.00;;;;;20.95;47.64;100812.31;4996196;28;52568;-39
2023/05/10 06:04:39;;;;;;;;;0.00;0.00;;;;;20.95;47.68;100817.59;4996475;28;45412;-39
2023/05/10 06:07:05;;;;;;;;;0.00;0.00;;;;;20.95;47.68;100813.19;5011489;28;45391;-39
2023/05/10 06:09:30;;;;;;;;;0.00;0.00;;;;;20.95;47.79;100815.81;4996062;28;45396;-41
2023/05/10 06:11:56;;;;;;;;;0.00;0.00;;;;;20.95;47.59;100810.56;4994902;28;45348;-40
2023/05/10 06:14:21;;;;;;;;;0.50;0.00;;;;;20.95;47.64;100815.81;4996231;28;45325;-40
2023/05/10 06:16:47;;;;;;;;;0.00;0.00;;;;;20.97;47.25;100823.63;4996702;28;45437;-39
2023/05/10 06:19:12;;;;;;;;;1.00;0.00;;;;;20.96;47.62;100820.16;4995945;28;45419;-41
2023/05/10 06:21:38;;;;;;;;;1.50;0.00;;;;;20.96;47.24;100828.06;4996062;28;45373;-39
2023/05/10 06:24:03;;;;;;;;;1.25;0.00;;;;;20.96;47.72;100819.28;4996127;28;45389;-39
2023/05/10 06:26:29;;;;;;;;;0.75;0.00;;;;;20.96;47.59;100821.94;4996246;28;45709;-39
2023/05/10 06:28:54;;;;;;;;;2.00;0.75;;;;;20.94;47.78;100829.94;4995854;28;49386;-39
2023/05/10 06:31:19;;;;;;;;;0.00;0.00;;;;;20.95;47.36;100823.72;4996197;28;45370;-39
2023/05/10 06:33:45;;;;;;;;;0.00;0.00;;;;;20.96;47.70;100827.19;4996311;28;45432;-41
2023/05/10 06:36:10;;;;;;;;;0.00;0.00;;;;;20.95;47.44;100831.63;4996240;28;45665;-39
2023/05/10 06:38:36;;;;;;;;;3.50;1.00;;;;;20.95;47.49;100833.41;4995691;28;46093;-40
2023/05/10 06:41:01;;;;;;;;;2.50;0.00;;;;;20.95;47.55;100831.63;4995827;28;45400;-41
2023/05/10 06:43:28;;;;;;;;;0.00;0.00;;;;;20.94;47.21;100837.84;4995204;28;53874;-39
2023/05/10 06:45:53;;;;;;;;;0.00;0.00;;;;;20.95;47.65;100834.28;4996044;28;45471;-39
2023/05/10 06:48:19;;;;;;;;;0.00;0.00;;;;;20.94;47.52;100840.47;4995749;28;46455;-40
2023/05/10 06:50:44;;;;;;;;;0.00;0.00;;;;;20.95;47.24;100834.28;4996984;28;45343;-41
2023/05/10 06:53:09;;;;;;;;;0.00;0.00;;;;;20.94;47.33;100843.09;4998952;28;45356;-40
2023/05/10 06:55:35;;;;;;;;;0.00;0.00;;;;;20.94;47.70;100837.84;4999195;28;45381;-41
2023/05/10 06:58:01;;;;;;;;;0.50;0.00;;;;;20.94;47.57;100840.47;4998914;28;46421;-41
2023/05/10 07:00:27;;;;;;;;;0.00;0.00;;;;;20.94;47.27;100842.28;4997709;28;45784;-42
2023/05/10 07:02:52;;;;;;;;;0.25;0.25;;;;;20.94;47.29;100850.19;4998479;28;57735;-43
2023/05/10 07:05:17;;;;;;;;;0.00;0.00;;;;;20.95;47.62;100850.06;4999301;28;45289;-41
2023/05/10 07:07:46;;;;;;;;;0.00;0.00;;;;;20.95;47.07;100841.31;4998656;28;45376;-40
2023/05/10 07:10:11;;;;;;;;;0.50;0.00;;;;;20.95;47.29;100857.13;4998848;28;45241;-41
2023/05/10 07:12:37;;;;;;;;;1.25;0.00;;;;;20.94;47.35;100851.00;4998451;28;52275;-40
2023/05/10 07:15:04;;;;;;;;;0.00;0.00;;;;;20.96;47.57;100854.41;4998968;28;45309;-45
2023/05/10 07:17:29;;;;;;;;;2.00;1.00;;;;;20.95;47.59;100865.03;4998446;28;46066;-40
2023/05/10 07:19:54;;;;;;;;;0.00;0.00;;;;;20.94;47.64;100856.28;4998526;28;46662;-39
2023/05/10 07:22:19;;;;;;;;;0.00;0.00;;;;;20.94;47.32;100860.72;4998989;28;45396;-39
2023/05/10 07:24:45;;;;;;;;;0.00;0.00;;;;;20.95;47.54;100868.53;4998629;28;45458;-44
2023/05/10 07:27:10;;;;;;;;;0.00;0.00;;;;;20.95;47.26;100862.38;4998356;28;46293;-39
2023/05/10 07:29:36;;;;;;;;;1.00;0.00;;;;;20.95;47.66;100867.66;4998390;28;45586;-39
2023/05/10 07:32:01;;;;;;;;;0.00;0.00;;;;;20.95;47.41;100865.03;4998523;28;45352;-39
2023/05/10 07:34:28;;;;;;;;;0.00;0.00;;;;;20.94;47.39;100856.28;4998738;28;45565;-39
2023/05/10 07:36:54;;;;;;;;;0.00;0.00;;;;;20.93;47.44;100859.84;4998589;28;46279;-40
2023/05/10 07:39:20;;;;;;;;;0.00;0.00;;;;;20.93;47.58;100859.84;4998308;28;51139;-40
2023/05/10 07:41:45;;;;;;;;;0.75;0.00;;;;;20.94;47.46;100869.44;4998256;28;45297;-38
2023/05/10 07:44:11;;;;;;;;;1.00;1.00;;;;;20.91;47.72;100861.72;4998378;28;45334;-39
2023/05/10 07:46:36;;;;;;;;;0.00;0.00;;;;;20.94;47.44;100863.34;4997999;28;46138;-38
2023/05/10 07:49:01;;;;;;;;;1.00;0.00;;;;;20.93;47.20;100870.38;4998020;28;45328;-39
2023/05/10 07:51:27;;;;;;;;;0.00;0.00;;;;;20.93;47.30;100870.38;4998148;28;45232;-39
2023/05/10 07:53:53;;;;;;;;;1.00;0.00;;;;;20.93;47.54;100867.75;4998340;28;45694;-39
2023/05/10 07:56:29;;;;;;;;;2.00;0.00;;;;;20.94;47.26;100871.25;4997856;28;46569;-39
2023/05/10 07:58:59;;;;;;;;;1.00;0.00;;;;;20.94;47.30;100860.72;4998346;28;45836;-39
2023/05/10 08:01:25;;;;;;;;;0.00;0.00;;;;;20.93;47.26;100865.13;4997802;28;45425;-38
2023/05/10 08:03:53;;;;;;;;;0.00;0.00;;;;;20.92;47.13;100863.41;4997921;28;45295;-39
2023/05/10 08:06:19;;;;;;;;;1.00;1.00;;;;;20.92;47.38;100871.31;4997842;28;46417;-40
2023/05/10 08:08:50;;;;;;;;;0.00;0.00;;;;;20.93;47.09;100875.66;4997772;28;45226;-40
2023/05/10 08:11:18;;;;;;;;;1.00;0.00;;;;;20.93;47.52;100866.91;4997991;28;45407;-39
2023/05/10 08:13:44;;;;;;;;;1.50;0.00;;;;;20.93;47.39;100870.38;4997972;28;45479;-39
2023/05/10 08:16:10;;;;;;;;;1.00;1.00;;;;;20.94;47.26;100874.72;4997742;28;46700;-39
2023/05/10 08:18:35;;;;;;;;;1.50;0.00;;;;;20.92;47.42;100868.69;4997512;28;45357;-39
2023/05/10 08:21:00;;;;;;;;;0.25;0.25;;;;;20.95;47.32;100878.19;4997769;28;45451;-39
2023/05/10 08:23:26;;;;;;;;;0.75;0.75;;;;;20.93;47.43;100875.66;4997912;28;45631;-39
2023/05/10 08:25:51;;;;;;;;;2.25;1.00;;;;;20.94;47.57;100880.00;4997396;28;46455;-39
2023/05/10 08:28:16;;;;;;;;;2.00;0.00;;;;;20.94;47.55;100880.00;4997521;28;45787;-39
2023/05/10 08:30:42;;;;;;;;;1.00;1.00;;;;;20.93;47.39;100891.47;4997356;28;50844;-40
2023/05/10 08:33:07;;;;;;;;;0.00;0.00;;;;;20.94;47.50;100895.81;4997841;28;45316;-40
